createdAt,value
2022-11-29T00:01:33.797Z,31.13
2022-11-29T00:04:01.296Z,37.28
2022-11-29T00:06:30.949Z,33.30
2022-11-29T00:09:02.022Z,31.45
2022-11-29T00:11:50.914Z,31.02
2022-11-29T00:14:19.186Z,30.45
2022-11-29T00:16:50.361Z,31.02
2022-11-29T00:19:17.001Z,34.13
2022-11-29T00:21:43.634Z,32.53
2022-11-29T00:24:10.308Z,30.60
2022-11-29T00:26:39.827Z,31.60
2022-11-29T00:29:06.691Z,31.45
2022-11-29T00:31:34.014Z,32.00
2022-11-29T00:34:03.400Z,30.67
2022-11-29T00:36:30.125Z,31.00
2022-11-29T00:38:56.795Z,32.90
2022-11-29T00:41:23.381Z,29.27
2022-11-29T00:43:50.037Z,31.20
2022-11-29T00:46:16.906Z,34.10
2022-11-29T00:48:43.561Z,32.67
2022-11-29T00:51:10.374Z,31.70
2022-11-29T00:53:37.686Z,37.60
2022-11-29T00:56:05.520Z,37.38
2022-11-29T00:58:33.230Z,31.85
2022-11-29T01:00:59.873Z,31.77
2022-11-29T01:03:26.542Z,33.35
2022-11-29T01:05:53.597Z,30.58
2022-11-29T01:08:20.317Z,31.77
2022-11-29T01:10:46.984Z,30.85
2022-11-29T01:13:13.635Z,30.05
2022-11-29T01:15:40.515Z,31.30
2022-11-29T01:18:07.159Z,29.80
2022-11-29T01:20:33.733Z,30.20
2022-11-29T01:23:00.337Z,31.00
2022-11-29T01:25:27.105Z,28.95
2022-11-29T01:27:54.642Z,30.13
2022-11-29T01:30:21.398Z,31.70
2022-11-29T01:32:48.051Z,31.08
2022-11-29T01:35:14.646Z,31.38
2022-11-29T01:37:41.263Z,31.25
2022-11-29T01:40:08.423Z,28.35
2022-11-29T01:42:35.066Z,29.98
2022-11-29T01:45:20.043Z,28.02
2022-11-29T01:47:49.178Z,29.25
2022-11-29T01:50:16.421Z,29.25
2022-11-29T01:52:43.750Z,28.65
2022-11-29T01:55:10.653Z,28.45
2022-11-29T01:57:40.585Z,28.25
2022-11-29T02:00:14.135Z,25.85
2022-11-29T02:02:48.821Z,26.92
2022-11-29T02:05:18.557Z,25.50
2022-11-29T02:07:48.340Z,27.60
2022-11-29T02:10:16.402Z,27.58
2022-11-29T02:13:11.663Z,26.02
2022-11-29T02:15:45.644Z,26.02
2022-11-29T02:18:22.434Z,25.17
2022-11-29T02:21:13.777Z,27.10
2022-11-29T02:23:58.624Z,26.50
2022-11-29T02:26:53.845Z,26.55
2022-11-29T02:29:48.211Z,26.95
2022-11-29T02:32:56.393Z,26.05
2022-11-29T02:35:47.209Z,24.98
2022-11-29T02:38:25.861Z,24.25
2022-11-29T02:41:14.455Z,27.40
2022-11-29T02:43:59.841Z,25.17
2022-11-29T02:47:01.771Z,25.63
2022-11-29T02:49:56.327Z,25.83
2022-11-29T02:53:04.445Z,27.42
2022-11-29T02:56:07.989Z,28.42
2022-11-29T02:59:12.708Z,29.10
2022-11-29T03:01:58.651Z,34.42
2022-11-29T03:04:32.795Z,28.02
2022-11-29T03:07:25.606Z,24.42
2022-11-29T03:10:04.099Z,21.40
2022-11-29T03:12:41.234Z,22.23
2022-11-29T03:15:41.366Z,22.33
2022-11-29T03:18:26.337Z,20.30
2022-11-29T03:20:55.697Z,22.55
2022-11-29T03:23:27.465Z,23.35
2022-11-29T03:28:29.634Z,20.60
2022-11-29T03:31:06.992Z,21.27
2022-11-29T03:34:00.178Z,23.00
2022-11-29T03:37:17.223Z,21.48
2022-11-29T03:39:59.317Z,22.98
2022-11-29T03:42:49.066Z,24.00
2022-11-29T03:45:43.457Z,23.23
2022-11-29T03:48:23.733Z,25.85
2022-11-29T03:50:56.474Z,26.90
2022-11-29T03:53:42.207Z,23.17
2022-11-29T03:56:27.531Z,22.42
2022-11-29T03:59:13.279Z,26.58
2022-11-29T04:02:01.049Z,26.27
2022-11-29T04:04:48.894Z,25.92
2022-11-29T04:07:21.452Z,24.85
2022-11-29T04:10:08.988Z,23.92
2022-11-29T04:13:03.590Z,26.20
2022-11-29T04:16:03.023Z,21.83
2022-11-29T04:19:07.134Z,19.63
2022-11-29T04:22:11.170Z,22.00
2022-11-29T04:25:05.113Z,20.48
2022-11-29T04:27:43.559Z,19.52
2022-11-29T04:30:16.445Z,18.42
2022-11-29T04:33:20.631Z,17.60
2022-11-29T04:36:30.674Z,17.65
2022-11-29T04:39:05.794Z,19.08
2022-11-29T04:42:13.831Z,17.40
2022-11-29T04:45:06.510Z,19.27
2022-11-29T04:47:51.824Z,18.88
2022-11-29T04:50:27.130Z,17.27
2022-11-29T04:53:30.745Z,17.38
2022-11-29T04:56:21.365Z,16.92
2022-11-29T04:59:17.748Z,16.00
2022-11-29T05:02:13.647Z,17.38
2022-11-29T05:04:49.002Z,16.50
2022-11-29T05:07:27.477Z,15.73
2022-11-29T05:10:03.107Z,15.15
2022-11-29T05:12:53.106Z,16.45
2022-11-29T05:15:58.780Z,18.13
2022-11-29T05:18:28.582Z,14.57
2022-11-29T05:21:36.790Z,14.75
2022-11-29T05:24:21.979Z,13.13
2022-11-29T05:27:17.535Z,14.82
2022-11-29T05:29:59.197Z,15.85
2022-11-29T05:32:33.860Z,13.68
2022-11-29T05:35:08.734Z,14.98
2022-11-29T05:38:10.742Z,15.25
2022-11-29T05:40:56.729Z,14.18
2022-11-29T05:43:54.094Z,18.20
2022-11-29T05:46:25.049Z,15.63
2022-11-29T05:49:29.265Z,14.20
2022-11-29T05:52:05.998Z,13.80
2022-11-29T05:55:14.471Z,14.55
2022-11-29T05:58:02.422Z,14.50
2022-11-29T06:00:43.590Z,21.33
2022-11-29T06:03:47.572Z,15.43
2022-11-29T06:06:39.174Z,14.90
2022-11-29T06:09:26.134Z,14.18
2022-11-29T06:11:57.555Z,14.43
2022-11-29T06:14:45.661Z,16.52
2022-11-29T06:17:39.294Z,14.95
2022-11-29T06:20:19.931Z,14.13
2022-11-29T06:23:19.693Z,13.45
2022-11-29T06:26:07.923Z,13.40
2022-11-29T06:28:54.702Z,13.10
2022-11-29T06:31:27.642Z,12.77
2022-11-29T06:34:20.259Z,11.07
2022-11-29T06:37:11.071Z,13.13
2022-11-29T06:39:38.018Z,13.55
2022-11-29T06:42:04.701Z,11.63
2022-11-29T06:44:31.571Z,14.32
2022-11-29T06:47:16.638Z,12.43
2022-11-29T06:49:53.470Z,11.38
2022-11-29T06:52:30.474Z,12.00
2022-11-29T06:55:02.991Z,12.32
2022-11-29T06:58:06.306Z,11.10
2022-11-29T07:00:51.992Z,11.27
2022-11-29T07:03:42.082Z,13.02
2022-11-29T07:06:22.162Z,11.38
2022-11-29T07:09:09.782Z,11.25
2022-11-29T07:11:36.797Z,11.75
2022-11-29T07:14:03.717Z,12.70
2022-11-29T07:16:33.821Z,13.65
2022-11-29T07:19:09.122Z,11.80
2022-11-29T07:22:05.583Z,10.77
2022-11-29T07:24:43.081Z,10.30
2022-11-29T07:27:23.884Z,10.02
2022-11-29T07:30:05.058Z,11.60
2022-11-29T07:32:52.123Z,11.07
2022-11-29T07:35:43.357Z,11.77
2022-11-29T07:38:28.392Z,11.10
2022-11-29T07:41:08.866Z,10.45
2022-11-29T07:43:57.230Z,11.02
2022-11-29T07:46:25.487Z,10.80
2022-11-29T07:48:52.153Z,11.63
2022-11-29T07:51:18.794Z,11.60
2022-11-29T07:53:45.413Z,11.50
2022-11-29T07:56:16.308Z,11.55
2022-11-29T07:58:43.079Z,12.37
2022-11-29T08:01:09.744Z,10.82
2022-11-29T08:03:36.462Z,12.25
2022-11-29T08:06:03.807Z,12.57
2022-11-29T08:08:30.436Z,11.68
2022-11-29T08:10:57.034Z,10.90
2022-11-29T08:13:23.627Z,11.55
2022-11-29T08:15:50.501Z,11.30
2022-11-29T08:18:17.859Z,12.73
2022-11-29T08:20:46.147Z,11.82
2022-11-29T08:23:13.635Z,10.77
2022-11-29T08:25:40.677Z,11.95
2022-11-29T08:28:07.323Z,13.18
2022-11-29T08:30:33.959Z,11.93
2022-11-29T08:33:00.635Z,14.52
2022-11-29T08:35:27.413Z,14.30
2022-11-29T08:37:54.622Z,11.80
2022-11-29T08:40:21.360Z,12.02
2022-11-29T08:42:47.932Z,12.07
2022-11-29T08:45:14.657Z,11.98
2022-11-29T08:47:42.379Z,10.77
2022-11-29T08:50:14.210Z,10.23
2022-11-29T08:55:31.652Z,10.85
2022-11-29T08:58:04.633Z,10.95
2022-11-29T09:00:32.906Z,10.05
2022-11-29T09:03:19.482Z,8.95
2022-11-29T09:05:46.126Z,9.93
2022-11-29T09:08:13.126Z,10.52
2022-11-29T09:10:40.783Z,10.30
2022-11-29T09:13:09.486Z,11.70
2022-11-29T09:15:41.785Z,6.80
2022-11-29T09:18:08.410Z,10.45
2022-11-29T09:20:35.443Z,9.05
2022-11-29T09:23:02.691Z,10.02
2022-11-29T09:25:29.306Z,10.18
2022-11-29T09:27:59.048Z,9.63
2022-11-29T09:30:26.401Z,10.52
2022-11-29T09:32:53.024Z,10.63
2022-11-29T09:35:19.647Z,10.00
2022-11-29T09:37:46.286Z,10.68
2022-11-29T09:40:19.486Z,10.27
2022-11-29T09:42:46.055Z,10.90
2022-11-29T09:45:24.215Z,11.23
2022-11-29T09:48:03.209Z,10.38
2022-11-29T09:50:34.193Z,11.32
2022-11-29T09:53:18.886Z,11.37
2022-11-29T09:56:05.496Z,10.55
2022-11-29T09:58:41.823Z,10.55
2022-11-29T10:01:14.190Z,9.68
2022-11-29T10:03:51.901Z,9.70
2022-11-29T10:06:25.417Z,10.35
2022-11-29T10:08:56.249Z,11.13
2022-11-29T10:11:36.814Z,9.90
2022-11-29T10:14:17.863Z,9.68
2022-11-29T10:16:50.845Z,12.47
2022-11-29T10:19:21.049Z,11.93
2022-11-29T10:21:58.984Z,9.82
2022-11-29T10:24:28.499Z,10.50
2022-11-29T10:26:55.373Z,11.23
2022-11-29T10:29:23.122Z,9.90
2022-11-29T10:31:49.980Z,12.45
2022-11-29T10:34:22.222Z,11.68
2022-11-29T10:37:13.964Z,11.43
2022-11-29T10:39:59.256Z,11.70
2022-11-29T10:42:47.151Z,11.02
2022-11-29T10:45:19.805Z,11.48
2022-11-29T10:47:47.747Z,13.30
2022-11-29T10:50:23.694Z,11.13
2022-11-29T10:52:50.342Z,12.30
2022-11-29T10:55:17.898Z,14.32
2022-11-29T10:58:11.018Z,12.60
2022-11-29T11:00:53.221Z,12.30
2022-11-29T11:03:31.873Z,10.35
2022-11-29T11:06:08.325Z,12.40
2022-11-29T11:08:36.267Z,10.40
2022-11-29T11:11:05.877Z,11.73
2022-11-29T11:13:33.706Z,12.07
2022-11-29T11:16:09.597Z,10.77
2022-11-29T11:18:38.566Z,11.55
2022-11-29T11:21:10.503Z,10.82
2022-11-29T11:23:45.376Z,11.68
2022-11-29T11:26:14.444Z,13.15
2022-11-29T11:28:49.452Z,12.80
2022-11-29T11:31:25.428Z,12.70
2022-11-29T11:33:52.063Z,12.88
2022-11-29T11:36:21.654Z,13.15
2022-11-29T11:39:11.628Z,13.80
2022-11-29T11:42:01.148Z,13.77
2022-11-29T11:44:50.255Z,12.48
2022-11-29T11:47:21.638Z,13.20
2022-11-29T11:49:51.711Z,12.85
2022-11-29T11:52:42.869Z,13.00
2022-11-29T11:55:21.820Z,13.45
2022-11-29T11:58:09.724Z,13.25
2022-11-29T12:01:04.017Z,12.98
2022-11-29T12:03:49.342Z,13.88
2022-11-29T12:06:27.908Z,13.82
2022-11-29T12:09:19.231Z,14.02
2022-11-29T12:12:04.383Z,13.25
2022-11-29T12:15:03.026Z,14.13
2022-11-29T12:17:52.661Z,12.18
2022-11-29T12:20:28.292Z,12.52
2022-11-29T12:23:13.026Z,12.45
2022-11-29T12:25:48.635Z,12.35
2022-11-29T12:28:20.692Z,13.63
2022-11-29T12:31:11.381Z,13.95
2022-11-29T12:34:05.406Z,12.93
2022-11-29T12:36:58.349Z,14.02
2022-11-29T12:39:52.341Z,13.05
2022-11-29T12:43:04.108Z,13.10
2022-11-29T12:45:33.574Z,14.98
2022-11-29T12:48:05.431Z,15.05
2022-11-29T12:53:32.483Z,14.02
2022-11-29T12:56:22.008Z,14.30
2022-11-29T12:58:51.634Z,13.35
2022-11-29T13:01:27.250Z,14.05
2022-11-29T13:04:38.737Z,13.90
2022-11-29T13:07:22.744Z,12.00
2022-11-29T13:10:18.067Z,13.85
2022-11-29T13:12:56.506Z,13.45
2022-11-29T13:15:38.069Z,12.38
2022-11-29T13:18:40.407Z,11.48
2022-11-29T13:24:14.737Z,11.90
2022-11-29T13:26:42.505Z,12.13
2022-11-29T13:29:15.646Z,13.32
2022-11-29T13:31:43.127Z,12.00
2022-11-29T13:34:16.132Z,12.23
2022-11-29T13:37:01.615Z,11.93
2022-11-29T13:39:52.779Z,10.90
2022-11-29T13:42:37.150Z,11.53
2022-11-29T13:45:09.645Z,11.23
2022-11-29T13:47:49.476Z,11.02
2022-11-29T13:50:43.706Z,11.63
2022-11-29T13:53:19.515Z,11.85
2022-11-29T13:56:01.356Z,11.50
2022-11-29T14:01:14.391Z,10.55
2022-11-29T14:03:42.846Z,11.70
2022-11-29T14:06:38.045Z,12.00
2022-11-29T14:09:27.346Z,12.60
2022-11-29T14:12:18.819Z,12.23
2022-11-29T14:14:58.199Z,13.13
2022-11-29T14:17:35.650Z,12.90
2022-11-29T14:20:28.395Z,13.05
2022-11-29T14:23:04.070Z,12.48
2022-11-29T14:28:18.335Z,12.07
2022-11-29T14:30:44.865Z,13.27
2022-11-29T14:33:21.130Z,13.05
2022-11-29T14:35:58.668Z,11.98
2022-11-29T14:38:41.288Z,11.60
2022-11-29T14:41:38.630Z,13.27
2022-11-29T14:44:15.962Z,12.93
2022-11-29T14:46:43.096Z,12.75
2022-11-29T14:49:22.284Z,12.63
2022-11-29T14:52:28.583Z,12.50
2022-11-29T14:55:16.544Z,12.77
2022-11-29T14:58:01.212Z,13.02
2022-11-29T15:00:32.617Z,12.82
2022-11-29T15:03:36.752Z,12.73
2022-11-29T15:06:06.076Z,13.55
2022-11-29T15:08:32.595Z,11.98
2022-11-29T15:11:26.053Z,12.38
2022-11-29T15:14:02.841Z,11.98
2022-11-29T15:16:38.759Z,13.45
2022-11-29T15:19:30.768Z,13.70
2022-11-29T15:22:20.041Z,14.18
2022-11-29T15:25:04.532Z,12.68
2022-11-29T15:27:31.245Z,12.93
2022-11-29T15:29:59.855Z,12.52
2022-11-29T15:32:30.945Z,12.20
2022-11-29T15:34:58.407Z,12.52
2022-11-29T15:37:30.847Z,13.18
2022-11-29T15:40:03.426Z,13.02
2022-11-29T15:42:40.470Z,16.40
2022-11-29T15:45:29.913Z,17.25
2022-11-29T15:48:16.336Z,17.00
2022-11-29T15:51:04.418Z,19.77
2022-11-29T15:54:00.436Z,15.23
2022-11-29T15:56:59.622Z,13.98
2022-11-29T15:59:40.768Z,15.63
2022-11-29T16:02:23.039Z,14.17
2022-11-29T16:04:54.282Z,15.65
2022-11-29T16:07:24.065Z,15.02
2022-11-29T16:10:01.658Z,18.15
2022-11-29T16:12:28.319Z,18.23
2022-11-29T16:14:58.002Z,17.80
2022-11-29T16:17:30.706Z,20.95
2022-11-29T16:20:06.194Z,18.70
2022-11-29T16:22:32.866Z,20.23
2022-11-29T16:25:04.094Z,17.60
2022-11-29T16:27:35.954Z,18.33
2022-11-29T16:30:03.630Z,23.17
2022-11-29T16:32:53.213Z,23.33
2022-11-29T16:35:24.476Z,22.38
2022-11-29T16:37:51.515Z,22.15
2022-11-29T16:40:25.420Z,21.42
2022-11-29T16:43:03.988Z,20.40
2022-11-29T16:45:41.344Z,21.58
2022-11-29T16:48:23.142Z,23.40
2022-11-29T16:51:13.202Z,24.08
2022-11-29T16:53:47.544Z,20.10
2022-11-29T16:56:16.541Z,20.48
2022-11-29T16:59:21.066Z,21.35
2022-11-29T17:01:32.768Z,17.77
2022-11-29T17:04:00.635Z,18.40
2022-11-29T17:06:28.972Z,18.50
2022-11-29T17:08:57.775Z,25.70
2022-11-29T17:11:24.816Z,22.70
2022-11-29T17:13:51.954Z,21.77
2022-11-29T17:16:21.502Z,20.10
2022-11-29T17:18:48.818Z,19.60
2022-11-29T17:21:17.680Z,21.48
2022-11-29T17:23:45.098Z,21.85
2022-11-29T17:26:11.745Z,24.50
2022-11-29T17:28:40.364Z,21.95
2022-11-29T17:31:15.126Z,25.83
2022-11-29T17:33:42.139Z,24.67
2022-11-29T17:36:11.208Z,22.20
2022-11-29T17:38:38.066Z,18.50
2022-11-29T17:41:13.387Z,16.65
2022-11-29T17:43:40.916Z,16.50
2022-11-29T17:46:19.482Z,14.65
2022-11-29T17:48:46.295Z,13.93
2022-11-29T17:51:43.696Z,16.27
2022-11-29T17:54:04.319Z,13.23
2022-11-29T17:56:31.291Z,13.68
2022-11-29T17:59:00.326Z,14.10
2022-11-29T18:01:29.143Z,13.63
2022-11-29T18:03:58.406Z,13.32
2022-11-29T18:06:27.185Z,13.23
2022-11-29T18:08:59.104Z,17.75
2022-11-29T18:11:42.920Z,17.98
2022-11-29T18:14:15.537Z,16.63
2022-11-29T18:16:42.760Z,23.58
2022-11-29T18:19:12.552Z,14.43
2022-11-29T18:21:39.449Z,18.17
2022-11-29T18:24:07.363Z,19.27
2022-11-29T18:26:35.333Z,15.35
2022-11-29T18:29:02.469Z,29.83
2022-11-29T18:31:31.602Z,22.85
2022-11-29T18:34:00.446Z,19.92
2022-11-29T18:36:30.023Z,14.05
2022-11-29T18:39:02.764Z,14.27
2022-11-29T18:41:30.521Z,13.15
2022-11-29T18:44:05.901Z,11.23
2022-11-29T18:46:33.271Z,12.70
2022-11-29T18:49:01.019Z,12.77
2022-11-29T18:51:29.189Z,14.52
2022-11-29T18:53:56.459Z,12.57
2022-11-29T18:56:25.425Z,13.80
2022-11-29T18:59:14.267Z,14.07
2022-11-29T19:01:42.441Z,14.55
2022-11-29T19:04:12.149Z,15.20
2022-11-29T19:06:40.246Z,13.70
2022-11-29T19:09:11.121Z,12.68
2022-11-29T19:11:37.822Z,12.48
2022-11-29T19:14:09.353Z,13.18
2022-11-29T19:16:35.919Z,12.98
2022-11-29T19:19:02.620Z,11.77
2022-11-29T19:21:31.943Z,13.20
2022-11-29T19:24:13.931Z,14.05
2022-11-29T19:26:42.838Z,13.15
2022-11-29T19:29:09.805Z,12.50
2022-11-29T19:31:39.146Z,14.45
2022-11-29T19:34:06.270Z,16.55
2022-11-29T19:36:32.851Z,13.10
2022-11-29T19:39:01.412Z,13.80
2022-11-29T19:41:30.370Z,14.02
2022-11-29T19:43:59.390Z,14.27
2022-11-29T19:46:28.671Z,14.93
2022-11-29T19:48:56.914Z,14.52
2022-11-29T19:51:24.846Z,13.82
2022-11-29T19:53:54.093Z,13.48
2022-11-29T19:56:21.154Z,17.05
2022-11-29T19:58:47.789Z,15.32
2022-11-29T20:01:16.919Z,14.30
2022-11-29T20:03:44.907Z,14.82
2022-11-29T20:06:13.530Z,13.05
2022-11-29T20:08:41.002Z,15.95
2022-11-29T20:11:26.158Z,14.90
2022-11-29T20:13:57.594Z,13.68
2022-11-29T20:16:25.084Z,13.27
2022-11-29T20:18:52.892Z,11.40
2022-11-29T20:21:31.527Z,12.05
2022-11-29T20:24:03.320Z,13.10
2022-11-29T20:28:57.180Z,11.70
2022-11-29T20:31:24.050Z,11.38
2022-11-29T20:33:52.704Z,12.07
2022-11-29T20:36:37.615Z,11.27
2022-11-29T20:39:34.980Z,11.23
2022-11-29T20:42:46.281Z,10.95
2022-11-29T20:45:14.593Z,12.35
2022-11-29T20:47:50.586Z,11.27
2022-11-29T20:50:23.850Z,11.73
2022-11-29T20:53:14.462Z,11.57
2022-11-29T20:55:46.442Z,12.63
2022-11-29T20:58:15.259Z,10.82
2022-11-29T21:00:41.900Z,10.95
2022-11-29T21:03:08.464Z,13.40
2022-11-29T21:05:37.788Z,13.23
2022-11-29T21:08:04.673Z,11.27
2022-11-29T21:10:31.310Z,11.80
2022-11-29T21:12:58.314Z,11.55
2022-11-29T21:15:25.213Z,10.25
2022-11-29T21:17:52.503Z,10.82
2022-11-29T21:20:24.601Z,10.05
2022-11-29T21:23:06.211Z,10.32
2022-11-29T21:25:48.270Z,10.93
2022-11-29T21:30:43.093Z,11.85
2022-11-29T21:33:11.320Z,11.18
2022-11-29T21:35:39.820Z,10.73
2022-11-29T21:38:10.670Z,10.30
2022-11-29T21:40:37.270Z,10.50
2022-11-29T21:43:03.855Z,9.70
2022-11-29T21:45:30.451Z,9.77
2022-11-29T21:48:00.705Z,9.50
2022-11-29T21:50:27.312Z,10.48
2022-11-29T21:52:53.923Z,10.93
2022-11-29T21:55:20.525Z,10.18
2022-11-29T21:57:47.110Z,9.70
2022-11-29T22:00:14.347Z,9.85
2022-11-29T22:02:41.120Z,10.82
2022-11-29T22:05:09.470Z,9.50
2022-11-29T22:07:36.159Z,11.48
2022-11-29T22:10:09.984Z,10.88
2022-11-29T22:12:45.725Z,10.55
2022-11-29T22:15:24.243Z,9.77
2022-11-29T22:17:51.717Z,10.85
2022-11-29T22:20:18.334Z,9.52
2022-11-29T22:22:45.323Z,9.65
2022-11-29T22:25:11.940Z,9.65
2022-11-29T22:27:38.534Z,10.82
2022-11-29T22:30:06.066Z,10.25
2022-11-29T22:32:34.319Z,10.52
2022-11-29T22:35:01.113Z,11.90
2022-11-29T22:37:28.287Z,11.73
2022-11-29T22:39:54.942Z,11.63
2022-11-29T22:42:21.572Z,11.05
2022-11-29T22:44:48.421Z,10.05
2022-11-29T22:47:15.215Z,10.15
2022-11-29T22:49:42.038Z,10.35
2022-11-29T22:52:08.676Z,10.10
2022-11-29T22:54:35.295Z,9.55
2022-11-29T22:57:01.848Z,10.90
2022-11-29T22:59:28.438Z,10.68
2022-11-29T23:01:55.060Z,10.88
2022-11-29T23:04:21.651Z,10.23
2022-11-29T23:06:48.274Z,10.55
2022-11-29T23:09:19.746Z,11.35
2022-11-29T23:11:50.820Z,10.82
2022-11-29T23:14:17.690Z,11.77
2022-11-29T23:16:44.393Z,11.02
2022-11-29T23:19:11.021Z,12.50
2022-11-29T23:21:39.622Z,11.05
2022-11-29T23:24:06.755Z,12.57
2022-11-29T23:26:39.816Z,13.18
2022-11-29T23:29:10.274Z,12.98
2022-11-29T23:31:37.413Z,14.40
2022-11-29T23:34:04.559Z,12.68
2022-11-29T23:36:31.431Z,12.80
2022-11-29T23:38:58.089Z,13.10
2022-11-29T23:41:24.897Z,13.05
2022-11-29T23:43:51.513Z,13.25
2022-11-29T23:46:20.490Z,13.00
2022-11-29T23:48:48.134Z,12.75
2022-11-29T23:51:15.777Z,14.27
2022-11-29T23:53:42.688Z,13.90
2022-11-29T23:56:15.454Z,12.70
2022-11-29T23:58:43.027Z,13.98
